sensor_id;sensor_type;location;lat;lon;timestamp;pressure;altitude;pressure_sealevel;temperature;humidity
70954;BME280;58618;47.490;8.736;2023-10-13T00:01:44;96785.59;;;11.17;100.00
70954;BME280;58618;47.490;8.736;2023-10-13T00:04:34;96780.94;;;11.19;100.00
70954;BME280;58618;47.490;8.736;2023-10-13T00:07:22;96772.28;;;11.00;100.00
70954;BME280;58618;47.490;8.736;2023-10-13T00:10:09;96775.66;;;10.95;100.00
70954;BME280;58618;47.490;8.736;2023-10-13T00:12:58;96782.13;;;10.93;100.00
70954;BME280;58618;47.490;8.736;2023-10-13T00:15:57;96776.72;;;10.89;100.00
70954;BME280;58618;47.490;8.736;2023-10-13T00:18:45;96784.72;;;10.93;100.00
70954;BME280;58618;47.490;8.736;2023-10-13T00:21:34;96779.09;;;10.81;100.00
70954;BME280;58618;47.490;8.736;2023-10-13T00:24:21;96781.88;;;10.89;100.00
70954;BME280;58618;47.490;8.736;2023-10-13T00:27:17;96784.78;;;10.83;100.00
70954;BME280;58618;47.490;8.736;2023-10-13T00:30:17;96783.50;;;10.80;100.00
70954;BME280;58618;47.490;8.736;2023-10-13T00:33:08;96776.56;;;10.76;100.00
70954;BME280;58618;47.490;8.736;2023-10-13T00:35:55;96769.34;;;10.73;100.00
70954;BME280;58618;47.490;8.736;2023-10-13T00:38:46;96769.91;;;10.65;100.00
70954;BME280;58618;47.490;8.736;2023-10-13T00:41:34;96762.41;;;10.63;100.00
70954;BME280;58618;47.490;8.736;2023-10-13T00:44:36;96756.78;;;10.56;100.00
70954;BME280;58618;47.490;8.736;2023-10-13T00:47:28;96754.69;;;10.58;100.00
70954;BME280;58618;47.490;8.736;2023-10-13T00:50:34;96760.16;;;10.56;100.00
70954;BME280;58618;47.490;8.736;2023-10-13T00:53:23;96743.16;;;10.45;100.00
70954;BME280;58618;47.490;8.736;2023-10-13T00:56:13;96760.72;;;10.43;100.00
70954;BME280;58618;47.490;8.736;2023-10-13T00:59:14;96769.72;;;10.51;100.00
70954;BME280;58618;47.490;8.736;2023-10-13T01:02:01;96765.31;;;10.51;100.00
70954;BME280;58618;47.490;8.736;2023-10-13T01:05:09;96759.41;;;10.51;100.00
70954;BME280;58618;47.490;8.736;2023-10-13T01:07:59;96733.94;;;10.34;100.00
70954;BME280;58618;47.490;8.736;2023-10-13T01:10:47;96753.22;;;10.42;100.00
70954;BME280;58618;47.490;8.736;2023-10-13T01:13:37;96763.28;;;10.43;100.00
70954;BME280;58618;47.490;8.736;2023-10-13T01:16:24;96751.41;;;10.42;100.00
70954;BME280;58618;47.490;8.736;2023-10-13T01:19:13;96753.25;;;10.37;100.00
70954;BME280;58618;47.490;8.736;2023-10-13T01:22:04;96729.06;;;10.23;100.00
70954;BME280;58618;47.490;8.736;2023-10-13T01:24:54;96747.84;;;10.38;100.00
70954;BME280;58618;47.490;8.736;2023-10-13T01:27:50;96748.41;;;10.30;100.00
70954;BME280;58618;47.490;8.736;2023-10-13T01:30:38;96751.78;;;10.26;100.00
70954;BME280;58618;47.490;8.736;2023-10-13T01:33:25;96743.75;;;10.27;100.00
70954;BME280;58618;47.490;8.736;2023-10-13T01:36:13;96739.13;;;10.24;100.00
70954;BME280;58618;47.490;8.736;2023-10-13T01:38:59;96740.41;;;10.22;100.00
70954;BME280;58618;47.490;8.736;2023-10-13T01:41:49;96734.75;;;10.14;100.00
70954;BME280;58618;47.490;8.736;2023-10-13T01:44:41;96737.34;;;10.14;100.00
70954;BME280;58618;47.490;8.736;2023-10-13T01:47:27;96745.56;;;10.22;100.00
70954;BME280;58618;47.490;8.736;2023-10-13T01:50:14;96743.25;;;10.25;100.00
70954;BME280;58618;47.490;8.736;2023-10-13T01:53:06;96741.19;;;10.12;100.00
70954;BME280;58618;47.490;8.736;2023-10-13T01:55:57;96737.63;;;10.03;100.00
70954;BME280;58618;47.490;8.736;2023-10-13T01:58:46;96747.91;;;10.13;100.00
70954;BME280;58618;47.490;8.736;2023-10-13T02:01:33;96738.63;;;10.07;100.00
70954;BME280;58618;47.490;8.736;2023-10-13T02:04:21;96747.16;;;10.02;100.00
70954;BME280;58618;47.490;8.736;2023-10-13T02:07:07;96744.84;;;10.01;100.00
70954;BME280;58618;47.490;8.736;2023-10-13T02:10:01;96753.13;;;9.93;100.00
70954;BME280;58618;47.490;8.736;2023-10-13T02:12:50;96749.22;;;10.00;100.00
70954;BME280;58618;47.490;8.736;2023-10-13T02:15:43;96735.06;;;9.98;100.00
70954;BME280;58618;47.490;8.736;2023-10-13T02:18:30;96744.06;;;10.00;100.00
70954;BME280;58618;47.490;8.736;2023-10-13T02:21:20;96742.53;;;9.89;100.00
70954;BME280;58618;47.490;8.736;2023-10-13T02:24:08;96741.25;;;9.92;100.00
70954;BME280;58618;47.490;8.736;2023-10-13T02:26:59;96736.63;;;9.89;100.00
70954;BME280;58618;47.490;8.736;2023-10-13T02:29:51;96738.69;;;9.87;100.00
70954;BME280;58618;47.490;8.736;2023-10-13T02:32:45;96740.28;;;9.78;100.00
70954;BME280;58618;47.490;8.736;2023-10-13T02:35:34;96737.13;;;9.91;100.00
70954;BME280;58618;47.490;8.736;2023-10-13T02:38:22;96743.34;;;9.80;100.00
70954;BME280;58618;47.490;8.736;2023-10-13T02:41:18;96741.78;;;9.79;100.00
70954;BME280;58618;47.490;8.736;2023-10-13T02:44:11;96741.56;;;9.75;100.00
70954;BME280;58618;47.490;8.736;2023-10-13T02:47:06;96744.88;;;9.86;100.00
70954;BME280;58618;47.490;8.736;2023-10-13T02:50:02;96743.88;;;9.77;100.00
70954;BME280;58618;47.490;8.736;2023-10-13T02:52:57;96733.59;;;9.66;100.00
70954;BME280;58618;47.490;8.736;2023-10-13T02:55:51;96738.19;;;9.80;100.00
70954;BME280;58618;47.490;8.736;2023-10-13T02:58:40;96734.06;;;9.73;100.00
70954;BME280;58618;47.490;8.736;2023-10-13T03:01:30;96729.47;;;9.60;100.00
70954;BME280;58618;47.490;8.736;2023-10-13T03:04:20;96721.00;;;9.50;100.00
70954;BME280;58618;47.490;8.736;2023-10-13T03:07:13;96727.41;;;9.57;100.00
70954;BME280;58618;47.490;8.736;2023-10-13T03:10:06;96713.50;;;9.58;100.00
70954;BME280;58618;47.490;8.736;2023-10-13T03:12:56;96714.53;;;9.67;100.00
70954;BME280;58618;47.490;8.736;2023-10-13T03:15:43;96716.59;;;9.65;100.00
70954;BME280;58618;47.490;8.736;2023-10-13T03:18:33;96721.50;;;9.62;100.00
70954;BME280;58618;47.490;8.736;2023-10-13T03:21:21;96720.22;;;9.54;100.00
70954;BME280;58618;47.490;8.736;2023-10-13T03:24:17;96721.75;;;9.55;100.00
70954;BME280;58618;47.490;8.736;2023-10-13T03:27:08;96725.59;;;9.63;100.00
70954;BME280;58618;47.490;8.736;2023-10-13T03:29:55;96721.75;;;9.55;100.00
70954;BME280;58618;47.490;8.736;2023-10-13T03:32:42;96714.06;;;9.40;100.00
70954;BME280;58618;47.490;8.736;2023-10-13T03:35:35;96712.50;;;9.39;100.00
70954;BME280;58618;47.490;8.736;2023-10-13T03:38:26;96708.91;;;9.40;100.00
70954;BME280;58618;47.490;8.736;2023-10-13T03:41:15;96700.66;;;9.38;100.00
70954;BME280;58618;47.490;8.736;2023-10-13T03:44:06;96697.06;;;9.39;100.00
70954;BME280;58618;47.490;8.736;2023-10-13T03:47:01;96694.47;;;9.44;100.00
70954;BME280;58618;47.490;8.736;2023-10-13T03:50:05;96691.13;;;9.39;100.00
70954;BME280;58618;47.490;8.736;2023-10-13T03:53:02;96691.41;;;9.32;100.00
70954;BME280;58618;47.490;8.736;2023-10-13T03:55:52;96690.63;;;9.31;100.00
70954;BME280;58618;47.490;8.736;2023-10-13T03:58:56;96684.69;;;9.26;100.00
70954;BME280;58618;47.490;8.736;2023-10-13T04:01:46;96669.78;;;9.33;100.00
70954;BME280;58618;47.490;8.736;2023-10-13T04:04:44;96682.13;;;9.36;100.00
70954;BME280;58618;47.490;8.736;2023-10-13T04:07:35;96685.75;;;9.40;100.00
70954;BME280;58618;47.490;8.736;2023-10-13T04:10:49;96677.50;;;9.23;100.00
70954;BME280;58618;47.490;8.736;2023-10-13T04:13:55;96685.75;;;9.25;100.00
70954;BME280;58618;47.490;8.736;2023-10-13T04:17:01;96672.88;;;9.30;100.00
70954;BME280;58618;47.490;8.736;2023-10-13T04:19:58;96685.75;;;9.25;100.00
70954;BME280;58618;47.490;8.736;2023-10-13T04:23:12;96677.75;;;9.16;100.00
70954;BME280;58618;47.490;8.736;2023-10-13T04:26:11;96676.50;;;9.19;100.00
70954;BME280;58618;47.490;8.736;2023-10-13T04:29:08;96675.19;;;9.11;100.00
70954;BME280;58618;47.490;8.736;2023-10-13T04:32:13;96677.53;;;9.13;100.00
70954;BME280;58618;47.490;8.736;2023-10-13T04:35:02;96644.09;;;8.93;100.00
70954;BME280;58618;47.490;8.736;2023-10-13T04:37:56;96652.81;;;8.97;100.00
70954;BME280;58618;47.490;8.736;2023-10-13T04:40:47;96666.22;;;8.99;100.00
70954;BME280;58618;47.490;8.736;2023-10-13T04:43:47;96669.03;;;8.97;100.00
70954;BME280;58618;47.490;8.736;2023-10-13T04:46:44;96672.63;;;8.96;100.00
70954;BME280;58618;47.490;8.736;2023-10-13T04:49:53;96669.28;;;8.90;100.00
70954;BME280;58618;47.490;8.736;2023-10-13T04:52:46;96668.25;;;8.92;100.00
70954;BME280;58618;47.490;8.736;2023-10-13T04:55:49;96664.13;;;8.80;100.00
70954;BME280;58618;47.490;8.736;2023-10-13T04:58:53;96658.22;;;8.90;100.00
70954;BME280;58618;47.490;8.736;2023-10-13T05:02:00;96661.03;;;8.83;100.00
70954;BME280;58618;47.490;8.736;2023-10-13T05:05:07;96655.41;;;8.81;100.00
70954;BME280;58618;47.490;8.736;2023-10-13T05:08:24;96662.56;;;8.69;100.00
70954;BME280;58618;47.490;8.736;2023-10-13T05:11:29;96661.03;;;8.78;100.00
70954;BME280;58618;47.490;8.736;2023-10-13T05:14:33;96665.16;;;8.84;100.00
70954;BME280;58618;47.490;8.736;2023-10-13T05:17:39;96664.38;;;8.84;100.00
70954;BME280;58618;47.490;8.736;2023-10-13T05:20:44;96657.44;;;8.79;100.00
70954;BME280;58618;47.490;8.736;2023-10-13T05:23:54;96677.00;;;8.80;100.00
70954;BME280;58618;47.490;8.736;2023-10-13T05:26:59;96667.97;;;8.73;100.00
70954;BME280;58618;47.490;8.736;2023-10-13T05:30:04;96672.88;;;8.69;100.00
70954;BME280;58618;47.490;8.736;2023-10-13T05:33:11;96676.97;;;8.70;100.00
70954;BME280;58618;47.490;8.736;2023-10-13T05:36:15;96683.69;;;8.76;100.00
70954;BME280;58618;47.490;8.736;2023-10-13T05:39:21;96684.94;;;8.74;100.00
70954;BME280;58618;47.490;8.736;2023-10-13T05:42:25;96676.47;;;8.78;100.00
70954;BME280;58618;47.490;8.736;2023-10-13T05:45:30;96675.97;;;8.71;100.00
70954;BME280;58618;47.490;8.736;2023-10-13T05:48:44;96679.56;;;8.80;100.00
70954;BME280;58618;47.490;8.736;2023-10-13T05:51:46;96652.81;;;8.66;100.00
70954;BME280;58618;47.490;8.736;2023-10-13T05:54:44;96673.41;;;8.86;100.00
70954;BME280;58618;47.490;8.736;2023-10-13T05:57:49;96677.53;;;8.93;100.00
70954;BME280;58618;47.490;8.736;2023-10-13T06:00:53;96676.47;;;8.88;100.00
70954;BME280;58618;47.490;8.736;2023-10-13T06:04:00;96681.59;;;8.78;100.00
70954;BME280;58618;47.490;8.736;2023-10-13T06:07:05;96685.75;;;9.05;100.00
70954;BME280;58618;47.490;8.736;2023-10-13T06:10:09;96676.22;;;9.05;100.00
70954;BME280;58618;47.490;8.736;2023-10-13T06:13:14;96682.66;;;9.03;100.00
70954;BME280;58618;47.490;8.736;2023-10-13T06:16:19;96677.50;;;9.33;100.00
70954;BME280;58618;47.490;8.736;2023-10-13T06:19:25;96674.34;;;9.71;100.00
70954;BME280;58618;47.490;8.736;2023-10-13T06:22:30;96660.78;;;10.20;100.00
70954;BME280;58618;47.490;8.736;2023-10-13T06:25:35;96675.28;;;10.94;100.00
70954;BME280;58618;47.490;8.736;2023-10-13T06:28:39;96674.81;;;11.50;100.00
70954;BME280;58618;47.490;8.736;2023-10-13T06:31:31;96681.22;;;11.81;100.00
70954;BME280;58618;47.490;8.736;2023-10-13T06:34:20;96679.50;;;12.38;100.00
70954;BME280;58618;47.490;8.736;2023-10-13T06:37:19;96681.31;;;12.75;100.00
70954;BME280;58618;47.490;8.736;2023-10-13T06:40:12;96682.63;;;13.09;100.00
70954;BME280;58618;47.490;8.736;2023-10-13T06:43:08;96695.78;;;13.45;100.00
70954;BME280;58618;47.490;8.736;2023-10-13T06:46:03;96693.72;;;14.02;100.00
70954;BME280;58618;47.490;8.736;2023-10-13T06:48:50;96688.19;;;14.80;100.00
70954;BME280;58618;47.490;8.736;2023-10-13T06:51:39;96701.91;;;14.72;100.00
70954;BME280;58618;47.490;8.736;2023-10-13T06:54:28;96697.91;;;15.11;100.00
70954;BME280;58618;47.490;8.736;2023-10-13T06:57:18;96695.34;;;14.75;100.00
70954;BME280;58618;47.490;8.736;2023-10-13T07:00:08;96702.72;;;15.48;100.00
70954;BME280;58618;47.490;8.736;2023-10-13T07:03:05;96697.59;;;15.66;100.00
70954;BME280;58618;47.490;8.736;2023-10-13T07:05:52;96701.06;;;15.92;100.00
70954;BME280;58618;47.490;8.736;2023-10-13T07:08:40;96704.50;;;16.01;100.00
70954;BME280;58618;47.490;8.736;2023-10-13T07:11:29;96712.41;;;16.44;100.00
70954;BME280;58618;47.490;8.736;2023-10-13T07:14:26;96708.63;;;16.59;100.00
70954;BME280;58618;47.490;8.736;2023-10-13T07:17:13;96704.81;;;16.91;100.00
70954;BME280;58618;47.490;8.736;2023-10-13T07:20:09;96710.16;;;17.11;100.00
70954;BME280;58618;47.490;8.736;2023-10-13T07:23:03;96711.63;;;17.47;100.00
70954;BME280;58618;47.490;8.736;2023-10-13T07:25:53;96717.03;;;17.88;100.00
70954;BME280;58618;47.490;8.736;2023-10-13T07:28:42;96712.75;;;17.92;100.00
70954;BME280;58618;47.490;8.736;2023-10-13T07:31:30;96721.91;;;17.35;100.00
70954;BME280;58618;47.490;8.736;2023-10-13T07:34:17;96722.59;;;17.78;100.00
70954;BME280;58618;47.490;8.736;2023-10-13T07:37:11;96720.63;;;17.75;100.00
70954;BME280;58618;47.490;8.736;2023-10-13T07:40:03;96721.09;;;18.36;100.00
70954;BME280;58618;47.490;8.736;2023-10-13T07:43:03;96712.63;;;18.68;98.60
70954;BME280;58618;47.490;8.736;2023-10-13T07:45:56;96724.97;;;18.59;97.09
70954;BME280;58618;47.490;8.736;2023-10-13T07:48:52;96715.31;;;18.80;94.74
70954;BME280;58618;47.490;8.736;2023-10-13T07:51:40;96712.47;;;18.44;95.58
70954;BME280;58618;47.490;8.736;2023-10-13T07:54:30;96713.84;;;19.45;92.78
70954;BME280;58618;47.490;8.736;2023-10-13T07:57:17;96716.25;;;19.62;94.56
70954;BME280;58618;47.490;8.736;2023-10-13T08:00:06;96715.38;;;19.25;97.73
70954;BME280;58618;47.490;8.736;2023-10-13T08:02:58;96717.47;;;18.78;96.24
70954;BME280;58618;47.490;8.736;2023-10-13T08:05:55;96714.22;;;18.61;99.29
70954;BME280;58618;47.490;8.736;2023-10-13T08:08:50;96711.22;;;18.91;96.61
70954;BME280;58618;47.490;8.736;2023-10-13T08:11:39;96695.03;;;18.77;100.00
70954;BME280;58618;47.490;8.736;2023-10-13T08:14:27;96699.63;;;18.80;100.00
70954;BME280;58618;47.490;8.736;2023-10-13T08:17:19;96695.78;;;18.78;100.00
70954;BME280;58618;47.490;8.736;2023-10-13T08:20:12;96691.59;;;18.85;98.24
70954;BME280;58618;47.490;8.736;2023-10-13T08:23:03;96694.91;;;18.74;99.22
70954;BME280;58618;47.490;8.736;2023-10-13T08:25:59;96696.47;;;19.08;100.00
70954;BME280;58618;47.490;8.736;2023-10-13T08:29:09;96690.31;;;18.91;99.30
70954;BME280;58618;47.490;8.736;2023-10-13T08:32:14;96688.78;;;19.35;93.79
70954;BME280;58618;47.490;8.736;2023-10-13T08:35:09;96691.81;;;19.58;88.15
70954;BME280;58618;47.490;8.736;2023-10-13T08:38:08;96690.53;;;20.13;80.00
70954;BME280;58618;47.490;8.736;2023-10-13T08:41:02;96676.00;;;20.28;76.83
70954;BME280;58618;47.490;8.736;2023-10-13T08:44:04;96672.75;;;19.25;98.39
70954;BME280;58618;47.490;8.736;2023-10-13T08:46:56;96676.28;;;18.75;100.00
70954;BME280;58618;47.490;8.736;2023-10-13T08:49:53;96675.97;;;18.56;100.00
70954;BME280;58618;47.490;8.736;2023-10-13T08:52:56;96664.78;;;18.26;100.00
70954;BME280;58618;47.490;8.736;2023-10-13T08:55:43;96652.69;;;18.22;100.00
70954;BME280;58618;47.490;8.736;2023-10-13T08:58:49;96657.41;;;18.28;100.00
70954;BME280;58618;47.490;8.736;2023-10-13T09:01:57;96650.53;;;18.24;100.00
70954;BME280;58618;47.490;8.736;2023-10-13T09:05:01;96655.81;;;18.36;100.00
70954;BME280;58618;47.490;8.736;2023-10-13T09:07:56;96656.34;;;18.50;100.00
70954;BME280;58618;47.490;8.736;2023-10-13T09:10:57;96646.09;;;18.66;100.00
70954;BME280;58618;47.490;8.736;2023-10-13T09:13:52;96645.94;;;18.83;100.00
70954;BME280;58618;47.490;8.736;2023-10-13T09:16:39;96648.50;;;18.71;100.00
70954;BME280;58618;47.490;8.736;2023-10-13T09:19:54;96647.09;;;18.73;100.00
70954;BME280;58618;47.490;8.736;2023-10-13T09:22:42;96648.03;;;18.89;100.00
70954;BME280;58618;47.490;8.736;2023-10-13T09:25:30;96644.19;;;19.20;100.00
70954;BME280;58618;47.490;8.736;2023-10-13T09:28:20;96640.72;;;19.28;100.00
70954;BME280;58618;47.490;8.736;2023-10-13T09:31:11;96638.88;;;19.40;69.26
70954;BME280;58618;47.490;8.736;2023-10-13T09:33:57;96642.91;;;19.26;98.58
70954;BME280;58618;47.490;8.736;2023-10-13T09:36:46;96643.41;;;19.64;67.56
70954;BME280;58618;47.490;8.736;2023-10-13T09:39:41;96640.03;;;20.00;75.86
70954;BME280;58618;47.490;8.736;2023-10-13T09:42:34;96630.94;;;20.22;67.33
70954;BME280;58618;47.490;8.736;2023-10-13T09:45:28;96626.66;;;20.42;65.37
70954;BME280;58618;47.490;8.736;2023-10-13T09:48:15;96629.56;;;20.52;67.39
70954;BME280;58618;47.490;8.736;2023-10-13T09:51:12;96623.75;;;20.59;70.78
70954;BME280;58618;47.490;8.736;2023-10-13T09:54:07;96623.56;;;20.52;85.54
70954;BME280;58618;47.490;8.736;2023-10-13T09:57:01;96605.75;;;20.57;84.01
70954;BME280;58618;47.490;8.736;2023-10-13T09:59:52;96612.03;;;20.69;66.69
70954;BME280;58618;47.490;8.736;2023-10-13T10:02:42;96614.25;;;20.67;77.88
70954;BME280;58618;47.490;8.736;2023-10-13T10:05:30;96605.25;;;20.67;75.57
70954;BME280;58618;47.490;8.736;2023-10-13T10:08:24;96610.22;;;20.85;66.04
70954;BME280;58618;47.490;8.736;2023-10-13T10:11:56;96603.13;;;21.01;69.06
70954;BME280;58618;47.490;8.736;2023-10-13T10:15:09;96605.09;;;21.04;65.66
70954;BME280;58618;47.490;8.736;2023-10-13T10:18:17;96599.66;;;21.40;52.14
70954;BME280;58618;47.490;8.736;2023-10-13T10:21:06;96601.31;;;21.48;72.06
70954;BME280;58618;47.490;8.736;2023-10-13T10:23:54;96592.34;;;21.49;53.90
70954;BME280;58618;47.490;8.736;2023-10-13T10:26:50;96594.38;;;21.72;61.70
70954;BME280;58618;47.490;8.736;2023-10-13T10:29:40;96588.84;;;21.77;49.95
70954;BME280;58618;47.490;8.736;2023-10-13T10:32:35;96575.56;;;21.70;52.47
70954;BME280;58618;47.490;8.736;2023-10-13T10:35:23;96568.63;;;21.62;62.46
70954;BME280;58618;47.490;8.736;2023-10-13T10:38:13;96576.72;;;21.88;60.86
70954;BME280;58618;47.490;8.736;2023-10-13T10:41:09;96565.59;;;21.95;58.38
70954;BME280;58618;47.490;8.736;2023-10-13T10:43:59;96564.19;;;21.97;57.92
70954;BME280;58618;47.490;8.736;2023-10-13T10:46:56;96559.06;;;22.04;59.73
70954;BME280;58618;47.490;8.736;2023-10-13T10:49:44;96557.00;;;21.94;58.11
70954;BME280;58618;47.490;8.736;2023-10-13T10:52:31;96555.00;;;21.91;55.28
70954;BME280;58618;47.490;8.736;2023-10-13T10:55:23;96547.03;;;22.03;50.75
70954;BME280;58618;47.490;8.736;2023-10-13T10:58:14;96538.19;;;22.11;56.63
70954;BME280;58618;47.490;8.736;2023-10-13T11:01:14;96536.88;;;22.21;51.08
70954;BME280;58618;47.490;8.736;2023-10-13T11:04:08;96540.94;;;22.38;55.44
70954;BME280;58618;47.490;8.736;2023-10-13T11:07:00;96529.75;;;22.41;54.16
70954;BME280;58618;47.490;8.736;2023-10-13T11:09:48;96515.94;;;22.24;49.42
70954;BME280;58618;47.490;8.736;2023-10-13T11:12:39;96517.19;;;22.30;48.76
70954;BME280;58618;47.490;8.736;2023-10-13T11:15:26;96517.97;;;22.54;53.36
70954;BME280;58618;47.490;8.736;2023-10-13T11:18:29;96504.34;;;22.48;51.12
70954;BME280;58618;47.490;8.736;2023-10-13T11:21:21;96505.91;;;22.53;49.03
70954;BME280;58618;47.490;8.736;2023-10-13T11:24:08;96502.91;;;22.51;55.01
70954;BME280;58618;47.490;8.736;2023-10-13T11:26:57;96512.69;;;22.54;55.50
70954;BME280;58618;47.490;8.736;2023-10-13T11:29:45;96504.53;;;22.59;52.55
70954;BME280;58618;47.490;8.736;2023-10-13T11:32:38;96491.94;;;22.68;53.63
70954;BME280;58618;47.490;8.736;2023-10-13T11:35:27;96496.63;;;22.78;52.99
70954;BME280;58618;47.490;8.736;2023-10-13T11:38:36;96488.31;;;22.76;49.08
70954;BME280;58618;47.490;8.736;2023-10-13T11:41:31;96483.88;;;22.80;52.69
70954;BME280;58618;47.490;8.736;2023-10-13T11:44:22;96483.53;;;23.04;50.16
70954;BME280;58618;47.490;8.736;2023-10-13T11:47:17;96478.16;;;22.97;47.04
70954;BME280;58618;47.490;8.736;2023-10-13T11:50:33;96470.25;;;22.97;47.24
70954;BME280;58618;47.490;8.736;2023-10-13T11:53:21;96469.16;;;22.98;55.21
70954;BME280;58618;47.490;8.736;2023-10-13T11:56:10;96463.81;;;22.95;52.56
70954;BME280;58618;47.490;8.736;2023-10-13T11:58:57;96460.94;;;23.03;50.84
70954;BME280;58618;47.490;8.736;2023-10-13T12:01:48;96450.63;;;23.17;53.32
70954;BME280;58618;47.490;8.736;2023-10-13T12:04:53;96448.25;;;23.09;56.32
70954;BME280;58618;47.490;8.736;2023-10-13T12:07:43;96442.03;;;23.21;46.73
70954;BME280;58618;47.490;8.736;2023-10-13T12:10:35;96429.78;;;23.32;50.29
70954;BME280;58618;47.490;8.736;2023-10-13T12:13:36;96424.59;;;23.39;54.76
70954;BME280;58618;47.490;8.736;2023-10-13T12:16:26;96432.84;;;23.37;59.21
70954;BME280;58618;47.490;8.736;2023-10-13T12:19:21;96417.09;;;23.41;53.49
70954;BME280;58618;47.490;8.736;2023-10-13T12:22:09;96418.34;;;23.47;52.28
70954;BME280;58618;47.490;8.736;2023-10-13T12:25:03;96407.19;;;23.31;59.28
70954;BME280;58618;47.490;8.736;2023-10-13T12:27:52;96406.28;;;23.20;52.47
70954;BME280;58618;47.490;8.736;2023-10-13T12:30:44;96406.47;;;23.34;57.32
70954;BME280;58618;47.490;8.736;2023-10-13T12:33:36;96399.06;;;23.43;52.96
70954;BME280;58618;47.490;8.736;2023-10-13T12:36:26;96403.31;;;23.47;53.01
70954;BME280;58618;47.490;8.736;2023-10-13T12:39:27;96398.31;;;23.42;46.23
70954;BME280;58618;47.490;8.736;2023-10-13T12:42:32;96397.56;;;23.42;55.19
70954;BME280;58618;47.490;8.736;2023-10-13T12:45:52;96385.47;;;23.67;53.75
70954;BME280;58618;47.490;8.736;2023-10-13T12:48:57;96382.16;;;23.74;45.16
70954;BME280;58618;47.490;8.736;2023-10-13T12:52:02;96383.00;;;23.81;44.70
70954;BME280;58618;47.490;8.736;2023-10-13T12:54:49;96377.72;;;23.81;52.89
70954;BME280;58618;47.490;8.736;2023-10-13T12:57:44;96381.63;;;23.94;43.39
70954;BME280;58618;47.490;8.736;2023-10-13T13:00:31;96374.88;;;23.97;42.09
70954;BME280;58618;47.490;8.736;2023-10-13T13:03:21;96372.97;;;23.94;53.55
70954;BME280;58618;47.490;8.736;2023-10-13T13:06:18;96372.47;;;23.85;54.76
70954;BME280;58618;47.490;8.736;2023-10-13T13:09:10;96367.19;;;23.81;43.23
70954;BME280;58618;47.490;8.736;2023-10-13T13:11:58;96359.72;;;23.87;45.10
70954;BME280;58618;47.490;8.736;2023-10-13T13:14:45;96355.19;;;23.84;55.78
70954;BME280;58618;47.490;8.736;2023-10-13T13:17:33;96367.03;;;23.67;48.28
70954;BME280;58618;47.490;8.736;2023-10-13T13:20:21;96357.94;;;23.61;49.39
70954;BME280;58618;47.490;8.736;2023-10-13T13:23:14;96350.50;;;23.70;42.14
70954;BME280;58618;47.490;8.736;2023-10-13T13:26:01;96353.69;;;23.86;40.05
70954;BME280;58618;47.490;8.736;2023-10-13T13:28:55;96352.38;;;24.07;43.27
70954;BME280;58618;47.490;8.736;2023-10-13T13:31:42;96342.91;;;24.02;40.37
70954;BME280;58618;47.490;8.736;2023-10-13T13:34:30;96344.03;;;24.01;41.33
70954;BME280;58618;47.490;8.736;2023-10-13T13:37:19;96338.06;;;24.08;41.12
70954;BME280;58618;47.490;8.736;2023-10-13T13:40:07;96332.03;;;24.07;40.62
70954;BME280;58618;47.490;8.736;2023-10-13T13:43:01;96320.28;;;23.97;44.41
70954;BME280;58618;47.490;8.736;2023-10-13T13:45:48;96318.84;;;23.63;54.95
70954;BME280;58618;47.490;8.736;2023-10-13T13:48:36;96322.41;;;23.85;41.05
70954;BME280;58618;47.490;8.736;2023-10-13T13:51:23;96318.06;;;23.99;44.40
70954;BME280;58618;47.490;8.736;2023-10-13T13:54:15;96317.66;;;23.97;40.44
70954;BME280;58618;47.490;8.736;2023-10-13T13:57:03;96309.00;;;23.60;54.48
70954;BME280;58618;47.490;8.736;2023-10-13T13:59:52;96305.41;;;23.75;42.78
70954;BME280;58618;47.490;8.736;2023-10-13T14:02:39;96293.50;;;23.88;39.29
70954;BME280;58618;47.490;8.736;2023-10-13T14:05:27;96291.22;;;23.90;39.61
70954;BME280;58618;47.490;8.736;2023-10-13T14:08:15;96295.06;;;23.96;41.20
70954;BME280;58618;47.490;8.736;2023-10-13T14:11:04;96285.13;;;23.79;40.57
70954;BME280;58618;47.490;8.736;2023-10-13T14:14:09;96276.91;;;23.84;38.66
70954;BME280;58618;47.490;8.736;2023-10-13T14:16:58;96276.81;;;23.74;41.59
70954;BME280;58618;47.490;8.736;2023-10-13T14:19:52;96276.53;;;23.49;42.15
70954;BME280;58618;47.490;8.736;2023-10-13T14:22:41;96268.81;;;23.63;39.58
70954;BME280;58618;47.490;8.736;2023-10-13T14:25:28;96269.50;;;23.60;39.74
70954;BME280;58618;47.490;8.736;2023-10-13T14:28:24;96270.28;;;23.61;39.79
70954;BME280;58618;47.490;8.736;2023-10-13T14:31:20;96272.91;;;23.61;39.00
70954;BME280;58618;47.490;8.736;2023-10-13T14:34:08;96263.78;;;23.51;38.91
70954;BME280;58618;47.490;8.736;2023-10-13T14:36:56;96270.94;;;23.54;39.11
70954;BME280;58618;47.490;8.736;2023-10-13T14:39:43;96269.06;;;23.51;38.81
70954;BME280;58618;47.490;8.736;2023-10-13T14:42:31;96264.22;;;23.23;43.91
70954;BME280;58618;47.490;8.736;2023-10-13T14:45:22;96265.94;;;23.08;42.98
70954;BME280;58618;47.490;8.736;2023-10-13T14:48:10;96265.59;;;23.13;39.70
70954;BME280;58618;47.490;8.736;2023-10-13T14:50:58;96258.47;;;23.14;39.55
70954;BME280;58618;47.490;8.736;2023-10-13T14:53:54;96260.31;;;23.10;39.75
70954;BME280;58618;47.490;8.736;2023-10-13T14:56:42;96243.03;;;23.12;38.56
70954;BME280;58618;47.490;8.736;2023-10-13T14:59:30;96256.97;;;22.83;44.60
70954;BME280;58618;47.490;8.736;2023-10-13T15:02:25;96245.56;;;22.72;39.78
70954;BME280;58618;47.490;8.736;2023-10-13T15:05:13;96250.09;;;22.75;40.99
70954;BME280;58618;47.490;8.736;2023-10-13T15:08:02;96255.25;;;22.68;42.43
70954;BME280;58618;47.490;8.736;2023-10-13T15:10:52;96252.13;;;22.59;45.36
70954;BME280;58618;47.490;8.736;2023-10-13T15:13:40;96250.19;;;22.56;40.66
70954;BME280;58618;47.490;8.736;2023-10-13T15:16:27;96244.22;;;22.59;39.58
70954;BME280;58618;47.490;8.736;2023-10-13T15:19:16;96249.66;;;22.43;44.89